sensor_id;sensor_type;location;lat;lon;timestamp;pressure;altitude;pressure_sealevel;temperature;humidity
57250;BME280;43102;52.014;-0.680;2023-01-27T00:00:00;102251;;;4.56;74.91
57250;BME280;43102;52.014;-0.680;2023-01-27T00:01:00;102251;;;4.56;74.91
57250;BME280;43102;52.014;-0.680;2023-01-27T00:02:00;102251;;;4.56;74.91
57250;BME280;43102;52.014;-0.680;2023-01-27T00:03:00;102251;;;4.56;74.91
57250;BME280;43102;52.014;-0.680;2023-01-27T00:04:00;102251;;;4.56;74.91
57250;BME280;43102;52.014;-0.680;2023-01-27T00:05:00;102256;;;4.56;75.23
57250;BME280;43102;52.014;-0.680;2023-01-27T00:06:00;102256;;;4.56;75.23
57250;BME280;43102;52.014;-0.680;2023-01-27T00:07:00;102256;;;4.56;75.23
57250;BME280;43102;52.014;-0.680;2023-01-27T00:08:00;102256;;;4.56;75.23
57250;BME280;43102;52.014;-0.680;2023-01-27T00:09:00;102256;;;4.56;75.23
57250;BME280;43102;52.014;-0.680;2023-01-27T00:10:00;102242;;;4.59;75.35
57250;BME280;43102;52.014;-0.680;2023-01-27T00:11:00;102242;;;4.59;75.35
57250;BME280;43102;52.014;-0.680;2023-01-27T00:12:00;102242;;;4.59;75.35
57250;BME280;43102;52.014;-0.680;2023-01-27T00:13:00;102242;;;4.59;75.35
57250;BME280;43102;52.014;-0.680;2023-01-27T00:14:00;102242;;;4.59;75.35
57250;BME280;43102;52.014;-0.680;2023-01-27T00:15:00;102246;;;4.60;75.58
57250;BME280;43102;52.014;-0.680;2023-01-27T00:16:00;102246;;;4.60;75.58
57250;BME280;43102;52.014;-0.680;2023-01-27T00:17:00;102246;;;4.60;75.58
57250;BME280;43102;52.014;-0.680;2023-01-27T00:18:00;102246;;;4.60;75.58
57250;BME280;43102;52.014;-0.680;2023-01-27T00:19:00;102246;;;4.60;75.58
57250;BME280;43102;52.014;-0.680;2023-01-27T00:20:00;102229;;;4.58;75.85
57250;BME280;43102;52.014;-0.680;2023-01-27T00:21:00;102229;;;4.58;75.85
57250;BME280;43102;52.014;-0.680;2023-01-27T00:22:00;102229;;;4.58;75.85
57250;BME280;43102;52.014;-0.680;2023-01-27T00:23:00;102229;;;4.58;75.85
57250;BME280;43102;52.014;-0.680;2023-01-27T00:24:00;102229;;;4.58;75.85
57250;BME280;43102;52.014;-0.680;2023-01-27T00:25:00;102236;;;4.50;76.27
57250;BME280;43102;52.014;-0.680;2023-01-27T00:26:01;102236;;;4.50;76.27
57250;BME280;43102;52.014;-0.680;2023-01-27T00:27:00;102236;;;4.50;76.27
57250;BME280;43102;52.014;-0.680;2023-01-27T00:28:00;102236;;;4.50;76.27
57250;BME280;43102;52.014;-0.680;2023-01-27T00:29:00;102236;;;4.50;76.27
57250;BME280;43102;52.014;-0.680;2023-01-27T00:30:00;102234;;;4.54;76.46
57250;BME280;43102;52.014;-0.680;2023-01-27T00:31:00;102234;;;4.54;76.46
57250;BME280;43102;52.014;-0.680;2023-01-27T00:32:00;102234;;;4.54;76.46
57250;BME280;43102;52.014;-0.680;2023-01-27T00:33:00;102234;;;4.54;76.46
57250;BME280;43102;52.014;-0.680;2023-01-27T00:34:00;102234;;;4.54;76.46
57250;BME280;43102;52.014;-0.680;2023-01-27T00:35:00;102222;;;4.57;76.56
57250;BME280;43102;52.014;-0.680;2023-01-27T00:36:02;102222;;;4.57;76.56
57250;BME280;43102;52.014;-0.680;2023-01-27T00:37:00;102222;;;4.57;76.56
57250;BME280;43102;52.014;-0.680;2023-01-27T00:38:00;102222;;;4.57;76.56
57250;BME280;43102;52.014;-0.680;2023-01-27T00:39:00;102222;;;4.57;76.56
57250;BME280;43102;52.014;-0.680;2023-01-27T00:40:00;102225;;;4.60;76.53
57250;BME280;43102;52.014;-0.680;2023-01-27T00:41:00;102225;;;4.60;76.53
57250;BME280;43102;52.014;-0.680;2023-01-27T00:42:00;102225;;;4.60;76.53
57250;BME280;43102;52.014;-0.680;2023-01-27T00:43:00;102225;;;4.60;76.53
57250;BME280;43102;52.014;-0.680;2023-01-27T00:44:00;102225;;;4.60;76.53
57250;BME280;43102;52.014;-0.680;2023-01-27T00:45:00;102245;;;4.60;76.79
57250;BME280;43102;52.014;-0.680;2023-01-27T00:46:00;102245;;;4.60;76.79
57250;BME280;43102;52.014;-0.680;2023-01-27T00:47:00;102245;;;4.60;76.79
57250;BME280;43102;52.014;-0.680;2023-01-27T00:48:00;102245;;;4.60;76.79
57250;BME280;43102;52.014;-0.680;2023-01-27T00:49:00;102245;;;4.60;76.79
57250;BME280;43102;52.014;-0.680;2023-01-27T00:50:00;102236;;;4.73;76.44
57250;BME280;43102;52.014;-0.680;2023-01-27T00:51:00;102236;;;4.73;76.44
57250;BME280;43102;52.014;-0.680;2023-01-27T00:52:00;102236;;;4.73;76.44
57250;BME280;43102;52.014;-0.680;2023-01-27T00:53:00;102236;;;4.73;76.44
57250;BME280;43102;52.014;-0.680;2023-01-27T00:54:00;102236;;;4.73;76.44
57250;BME280;43102;52.014;-0.680;2023-01-27T00:55:00;102238;;;4.63;76.78
57250;BME280;43102;52.014;-0.680;2023-01-27T00:56:00;102238;;;4.63;76.78
57250;BME280;43102;52.014;-0.680;2023-01-27T00:57:00;102238;;;4.63;76.78
57250;BME280;43102;52.014;-0.680;2023-01-27T00:58:00;102238;;;4.63;76.78
57250;BME280;43102;52.014;-0.680;2023-01-27T00:59:00;102238;;;4.63;76.78
57250;BME280;43102;52.014;-0.680;2023-01-27T01:00:00;102218;;;4.65;76.76
57250;BME280;43102;52.014;-0.680;2023-01-27T01:01:00;102218;;;4.65;76.76
57250;BME280;43102;52.014;-0.680;2023-01-27T01:02:00;102218;;;4.65;76.76
57250;BME280;43102;52.014;-0.680;2023-01-27T01:03:00;102218;;;4.65;76.76
57250;BME280;43102;52.014;-0.680;2023-01-27T01:04:00;102218;;;4.65;76.76
57250;BME280;43102;52.014;-0.680;2023-01-27T01:05:00;102223;;;4.64;76.80
57250;BME280;43102;52.014;-0.680;2023-01-27T01:06:01;102223;;;4.64;76.80
57250;BME280;43102;52.014;-0.680;2023-01-27T01:07:00;102223;;;4.64;76.80
57250;BME280;43102;52.014;-0.680;2023-01-27T01:08:00;102223;;;4.64;76.80
57250;BME280;43102;52.014;-0.680;2023-01-27T01:09:00;102223;;;4.64;76.80
57250;BME280;43102;52.014;-0.680;2023-01-27T01:10:00;102225;;;4.69;76.68
57250;BME280;43102;52.014;-0.680;2023-01-27T01:11:00;102225;;;4.69;76.68
57250;BME280;43102;52.014;-0.680;2023-01-27T01:12:00;102225;;;4.69;76.68
57250;BME280;43102;52.014;-0.680;2023-01-27T01:13:00;102225;;;4.69;76.68
57250;BME280;43102;52.014;-0.680;2023-01-27T01:14:00;102225;;;4.69;76.68
57250;BME280;43102;52.014;-0.680;2023-01-27T01:15:00;102220;;;4.69;76.66
57250;BME280;43102;52.014;-0.680;2023-01-27T01:16:04;102220;;;4.69;76.66
57250;BME280;43102;52.014;-0.680;2023-01-27T01:17:00;102220;;;4.69;76.66
57250;BME280;43102;52.014;-0.680;2023-01-27T01:18:00;102220;;;4.69;76.66
57250;BME280;43102;52.014;-0.680;2023-01-27T01:19:00;102220;;;4.69;76.66
57250;BME280;43102;52.014;-0.680;2023-01-27T01:20:00;102227;;;4.66;76.83
57250;BME280;43102;52.014;-0.680;2023-01-27T01:21:00;102227;;;4.66;76.83
57250;BME280;43102;52.014;-0.680;2023-01-27T01:22:00;102227;;;4.66;76.83
57250;BME280;43102;52.014;-0.680;2023-01-27T01:23:00;102227;;;4.66;76.83
57250;BME280;43102;52.014;-0.680;2023-01-27T01:24:00;102227;;;4.66;76.83
57250;BME280;43102;52.014;-0.680;2023-01-27T01:25:00;102230;;;4.62;77.11
57250;BME280;43102;52.014;-0.680;2023-01-27T01:26:00;102230;;;4.62;77.11
57250;BME280;43102;52.014;-0.680;2023-01-27T01:27:00;102230;;;4.62;77.11
57250;BME280;43102;52.014;-0.680;2023-01-27T01:28:00;102230;;;4.62;77.11
57250;BME280;43102;52.014;-0.680;2023-01-27T01:29:00;102230;;;4.62;77.11
57250;BME280;43102;52.014;-0.680;2023-01-27T01:30:00;102221;;;4.63;77.23
57250;BME280;43102;52.014;-0.680;2023-01-27T01:31:04;102221;;;4.63;77.23
57250;BME280;43102;52.014;-0.680;2023-01-27T01:32:00;102221;;;4.63;77.23
57250;BME280;43102;52.014;-0.680;2023-01-27T01:33:00;102221;;;4.63;77.23
57250;BME280;43102;52.014;-0.680;2023-01-27T01:34:00;102221;;;4.63;77.23
57250;BME280;43102;52.014;-0.680;2023-01-27T01:35:00;102215;;;4.64;77.48
57250;BME280;43102;52.014;-0.680;2023-01-27T01:36:04;102215;;;4.64;77.48
57250;BME280;43102;52.014;-0.680;2023-01-27T01:37:00;102215;;;4.64;77.48
57250;BME280;43102;52.014;-0.680;2023-01-27T01:38:00;102215;;;4.64;77.48
57250;BME280;43102;52.014;-0.680;2023-01-27T01:39:00;102215;;;4.64;77.48
57250;BME280;43102;52.014;-0.680;2023-01-27T01:40:00;102220;;;4.58;77.90
57250;BME280;43102;52.014;-0.680;2023-01-27T01:41:00;102220;;;4.58;77.90
57250;BME280;43102;52.014;-0.680;2023-01-27T01:42:00;102220;;;4.58;77.90
57250;BME280;43102;52.014;-0.680;2023-01-27T01:43:01;102220;;;4.58;77.90
57250;BME280;43102;52.014;-0.680;2023-01-27T01:46:00;102218;;;4.64;77.88
57250;BME280;43102;52.014;-0.680;2023-01-27T01:47:00;102218;;;4.64;77.88
57250;BME280;43102;52.014;-0.680;2023-01-27T01:49:00;102218;;;4.64;77.88
57250;BME280;43102;52.014;-0.680;2023-01-27T01:50:00;102213;;;4.64;77.97
57250;BME280;43102;52.014;-0.680;2023-01-27T01:52:02;102213;;;4.64;77.97
57250;BME280;43102;52.014;-0.680;2023-01-27T01:53:00;102213;;;4.64;77.97
57250;BME280;43102;52.014;-0.680;2023-01-27T01:55:00;102221;;;4.64;78.08
57250;BME280;43102;52.014;-0.680;2023-01-27T01:56:01;102221;;;4.64;78.08
57250;BME280;43102;52.014;-0.680;2023-01-27T01:57:02;102221;;;4.64;78.08
57250;BME280;43102;52.014;-0.680;2023-01-27T01:58:00;102221;;;4.64;78.08
57250;BME280;43102;52.014;-0.680;2023-01-27T01:59:02;102221;;;4.64;78.08
57250;BME280;43102;52.014;-0.680;2023-01-27T02:00:01;102218;;;4.65;78.05
57250;BME280;43102;52.014;-0.680;2023-01-27T02:01:01;102218;;;4.65;78.05
57250;BME280;43102;52.014;-0.680;2023-01-27T02:02:01;102218;;;4.65;78.05
57250;BME280;43102;52.014;-0.680;2023-01-27T02:03:00;102218;;;4.65;78.05
57250;BME280;43102;52.014;-0.680;2023-01-27T02:04:01;102218;;;4.65;78.05
57250;BME280;43102;52.014;-0.680;2023-01-27T02:05:01;102208;;;4.74;77.90
57250;BME280;43102;52.014;-0.680;2023-01-27T02:06:00;102208;;;4.74;77.90
57250;BME280;43102;52.014;-0.680;2023-01-27T02:07:03;102208;;;4.74;77.90
57250;BME280;43102;52.014;-0.680;2023-01-27T02:08:03;102208;;;4.74;77.90
57250;BME280;43102;52.014;-0.680;2023-01-27T02:09:00;102208;;;4.74;77.90
57250;BME280;43102;52.014;-0.680;2023-01-27T02:10:00;102206;;;4.75;78.04
57250;BME280;43102;52.014;-0.680;2023-01-27T02:11:00;102206;;;4.75;78.04
57250;BME280;43102;52.014;-0.680;2023-01-27T02:12:00;102206;;;4.75;78.04
57250;BME280;43102;52.014;-0.680;2023-01-27T02:13:00;102206;;;4.75;78.04
57250;BME280;43102;52.014;-0.680;2023-01-27T02:14:00;102206;;;4.75;78.04
57250;BME280;43102;52.014;-0.680;2023-01-27T02:15:00;102204;;;4.78;78.12
57250;BME280;43102;52.014;-0.680;2023-01-27T02:16:00;102204;;;4.78;78.12
57250;BME280;43102;52.014;-0.680;2023-01-27T02:17:00;102204;;;4.78;78.12
57250;BME280;43102;52.014;-0.680;2023-01-27T02:18:00;102204;;;4.78;78.12
57250;BME280;43102;52.014;-0.680;2023-01-27T02:19:00;102204;;;4.78;78.12
57250;BME280;43102;52.014;-0.680;2023-01-27T02:21:00;102194;;;4.78;78.27
57250;BME280;43102;52.014;-0.680;2023-01-27T02:22:00;102194;;;4.78;78.27
57250;BME280;43102;52.014;-0.680;2023-01-27T02:24:00;102194;;;4.78;78.27
57250;BME280;43102;52.014;-0.680;2023-01-27T02:25:02;102202;;;4.67;78.91
57250;BME280;43102;52.014;-0.680;2023-01-27T02:26:04;102202;;;4.67;78.91
57250;BME280;43102;52.014;-0.680;2023-01-27T02:27:00;102202;;;4.67;78.91
57250;BME280;43102;52.014;-0.680;2023-01-27T02:28:00;102202;;;4.67;78.91
57250;BME280;43102;52.014;-0.680;2023-01-27T02:29:02;102202;;;4.67;78.91
57250;BME280;43102;52.014;-0.680;2023-01-27T02:30:00;102197;;;4.75;78.94
57250;BME280;43102;52.014;-0.680;2023-01-27T02:31:00;102197;;;4.75;78.94
57250;BME280;43102;52.014;-0.680;2023-01-27T02:32:00;102197;;;4.75;78.94
57250;BME280;43102;52.014;-0.680;2023-01-27T02:33:00;102197;;;4.75;78.94
57250;BME280;43102;52.014;-0.680;2023-01-27T02:34:02;102197;;;4.75;78.94
57250;BME280;43102;52.014;-0.680;2023-01-27T02:35:00;102194;;;4.77;79.05
57250;BME280;43102;52.014;-0.680;2023-01-27T02:36:02;102194;;;4.77;79.05
57250;BME280;43102;52.014;-0.680;2023-01-27T02:37:03;102194;;;4.77;79.05
57250;BME280;43102;52.014;-0.680;2023-01-27T02:38:00;102194;;;4.77;79.05
57250;BME280;43102;52.014;-0.680;2023-01-27T02:39:00;102194;;;4.77;79.05
57250;BME280;43102;52.014;-0.680;2023-01-27T02:40:00;102195;;;4.76;79.42
57250;BME280;43102;52.014;-0.680;2023-01-27T02:41:06;102195;;;4.76;79.42
57250;BME280;43102;52.014;-0.680;2023-01-27T02:42:00;102195;;;4.76;79.42
57250;BME280;43102;52.014;-0.680;2023-01-27T02:43:00;102195;;;4.76;79.42
57250;BME280;43102;52.014;-0.680;2023-01-27T02:44:00;102195;;;4.76;79.42
57250;BME280;43102;52.014;-0.680;2023-01-27T02:45:00;102191;;;4.76;79.67
57250;BME280;43102;52.014;-0.680;2023-01-27T02:46:00;102191;;;4.76;79.67
57250;BME280;43102;52.014;-0.680;2023-01-27T02:47:00;102191;;;4.76;79.67
57250;BME280;43102;52.014;-0.680;2023-01-27T02:48:00;102191;;;4.76;79.67
57250;BME280;43102;52.014;-0.680;2023-01-27T02:49:00;102191;;;4.76;79.67
57250;BME280;43102;52.014;-0.680;2023-01-27T02:50:00;102182;;;4.77;80.02
57250;BME280;43102;52.014;-0.680;2023-01-27T02:51:00;102182;;;4.77;80.02
57250;BME280;43102;52.014;-0.680;2023-01-27T02:52:00;102182;;;4.77;80.02
57250;BME280;43102;52.014;-0.680;2023-01-27T02:53:00;102182;;;4.77;80.02
57250;BME280;43102;52.014;-0.680;2023-01-27T02:54:00;102182;;;4.77;80.02
57250;BME280;43102;52.014;-0.680;2023-01-27T02:55:00;102174;;;4.70;80.79
57250;BME280;43102;52.014;-0.680;2023-01-27T02:56:00;102174;;;4.70;80.79
57250;BME280;43102;52.014;-0.680;2023-01-27T02:57:00;102174;;;4.70;80.79
57250;BME280;43102;52.014;-0.680;2023-01-27T02:58:00;102174;;;4.70;80.79
57250;BME280;43102;52.014;-0.680;2023-01-27T02:59:00;102174;;;4.70;80.79
57250;BME280;43102;52.014;-0.680;2023-01-27T03:00:00;102168;;;4.65;81.26
57250;BME280;43102;52.014;-0.680;2023-01-27T03:01:00;102168;;;4.65;81.26
57250;BME280;43102;52.014;-0.680;2023-01-27T03:02:00;102168;;;4.65;81.26
57250;BME280;43102;52.014;-0.680;2023-01-27T03:03:00;102168;;;4.65;81.26
57250;BME280;43102;52.014;-0.680;2023-01-27T03:04:00;102168;;;4.65;81.26
57250;BME280;43102;52.014;-0.680;2023-01-27T03:05:00;102177;;;4.64;81.58
57250;BME280;43102;52.014;-0.680;2023-01-27T03:06:00;102177;;;4.64;81.58
57250;BME280;43102;52.014;-0.680;2023-01-27T03:07:00;102177;;;4.64;81.58
57250;BME280;43102;52.014;-0.680;2023-01-27T03:08:00;102177;;;4.64;81.58
57250;BME280;43102;52.014;-0.680;2023-01-27T03:09:00;102177;;;4.64;81.58
57250;BME280;43102;52.014;-0.680;2023-01-27T03:10:00;102168;;;4.65;81.51
57250;BME280;43102;52.014;-0.680;2023-01-27T03:11:00;102168;;;4.65;81.51
57250;BME280;43102;52.014;-0.680;2023-01-27T03:12:00;102168;;;4.65;81.51
57250;BME280;43102;52.014;-0.680;2023-01-27T03:13:00;102168;;;4.65;81.51
57250;BME280;43102;52.014;-0.680;2023-01-27T03:14:00;102168;;;4.65;81.51
57250;BME280;43102;52.014;-0.680;2023-01-27T03:15:00;102166;;;4.63;81.82
57250;BME280;43102;52.014;-0.680;2023-01-27T03:16:00;102166;;;4.63;81.82
57250;BME280;43102;52.014;-0.680;2023-01-27T03:17:00;102166;;;4.63;81.82
57250;BME280;43102;52.014;-0.680;2023-01-27T03:18:04;102166;;;4.63;81.82
57250;BME280;43102;52.014;-0.680;2023-01-27T03:19:00;102166;;;4.63;81.82
57250;BME280;43102;52.014;-0.680;2023-01-27T03:20:00;102167;;;4.66;81.71
57250;BME280;43102;52.014;-0.680;2023-01-27T03:21:01;102167;;;4.66;81.71
57250;BME280;43102;52.014;-0.680;2023-01-27T03:22:00;102167;;;4.66;81.71
57250;BME280;43102;52.014;-0.680;2023-01-27T03:23:00;102167;;;4.66;81.71
57250;BME280;43102;52.014;-0.680;2023-01-27T03:24:00;102167;;;4.66;81.71
57250;BME280;43102;52.014;-0.680;2023-01-27T03:25:00;102166;;;4.50;82.50
57250;BME280;43102;52.014;-0.680;2023-01-27T03:26:00;102166;;;4.50;82.50
57250;BME280;43102;52.014;-0.680;2023-01-27T03:27:00;102166;;;4.50;82.50
57250;BME280;43102;52.014;-0.680;2023-01-27T03:28:00;102166;;;4.50;82.50
57250;BME280;43102;52.014;-0.680;2023-01-27T03:29:00;102166;;;4.50;82.50
57250;BME280;43102;52.014;-0.680;2023-01-27T03:30:00;102163;;;4.59;82.19
57250;BME280;43102;52.014;-0.680;2023-01-27T03:31:02;102163;;;4.59;82.19
57250;BME280;43102;52.014;-0.680;2023-01-27T03:32:00;102163;;;4.59;82.19
57250;BME280;43102;52.014;-0.680;2023-01-27T03:33:00;102163;;;4.59;82.19
57250;BME280;43102;52.014;-0.680;2023-01-27T03:34:00;102163;;;4.59;82.19
57250;BME280;43102;52.014;-0.680;2023-01-27T03:35:00;102163;;;4.56;82.25
57250;BME280;43102;52.014;-0.680;2023-01-27T03:36:01;102163;;;4.56;82.25
57250;BME280;43102;52.014;-0.680;2023-01-27T03:37:00;102163;;;4.56;82.25
57250;BME280;43102;52.014;-0.680;2023-01-27T03:38:00;102163;;;4.56;82.25
57250;BME280;43102;52.014;-0.680;2023-01-27T03:39:00;102163;;;4.56;82.25
57250;BME280;43102;52.014;-0.680;2023-01-27T03:40:00;102163;;;4.57;82.01
57250;BME280;43102;52.014;-0.680;2023-01-27T03:41:02;102163;;;4.57;82.01
57250;BME280;43102;52.014;-0.680;2023-01-27T03:42:00;102163;;;4.57;82.01
57250;BME280;43102;52.014;-0.680;2023-01-27T03:43:00;102163;;;4.57;82.01
57250;BME280;43102;52.014;-0.680;2023-01-27T03:44:00;102163;;;4.57;82.01
57250;BME280;43102;52.014;-0.680;2023-01-27T03:45:00;102159;;;4.54;82.05
57250;BME280;43102;52.014;-0.680;2023-01-27T03:46:00;102159;;;4.54;82.05
57250;BME280;43102;52.014;-0.680;2023-01-27T03:47:00;102159;;;4.54;82.05
57250;BME280;43102;52.014;-0.680;2023-01-27T03:48:00;102159;;;4.54;82.05
57250;BME280;43102;52.014;-0.680;2023-01-27T03:49:00;102159;;;4.54;82.05
57250;BME280;43102;52.014;-0.680;2023-01-27T03:50:00;102155;;;4.45;82.66
57250;BME280;43102;52.014;-0.680;2023-01-27T03:51:00;102155;;;4.45;82.66
57250;BME280;43102;52.014;-0.680;2023-01-27T03:52:00;102155;;;4.45;82.66
57250;BME280;43102;52.014;-0.680;2023-01-27T03:53:00;102155;;;4.45;82.66
57250;BME280;43102;52.014;-0.680;2023-01-27T03:54:00;102155;;;4.45;82.66
57250;BME280;43102;52.014;-0.680;2023-01-27T03:55:00;102160;;;4.45;82.77
57250;BME280;43102;52.014;-0.680;2023-01-27T03:56:00;102160;;;4.45;82.77
57250;BME280;43102;52.014;-0.680;2023-01-27T03:57:00;102160;;;4.45;82.77
57250;BME280;43102;52.014;-0.680;2023-01-27T03:58:00;102160;;;4.45;82.77
57250;BME280;43102;52.014;-0.680;2023-01-27T03:59:00;102160;;;4.45;82.77
57250;BME280;43102;52.014;-0.680;2023-01-27T04:00:00;102164;;;4.35;83.41
57250;BME280;43102;52.014;-0.680;2023-01-27T04:01:04;102164;;;4.35;83.41
57250;BME280;43102;52.014;-0.680;2023-01-27T04:02:00;102164;;;4.35;83.41
57250;BME280;43102;52.014;-0.680;2023-01-27T04:03:00;102164;;;4.35;83.41
57250;BME280;43102;52.014;-0.680;2023-01-27T04:04:00;102164;;;4.35;83.41
57250;BME280;43102;52.014;-0.680;2023-01-27T04:05:00;102166;;;4.36;83.66
57250;BME280;43102;52.014;-0.680;2023-01-27T04:06:01;102166;;;4.36;83.66
57250;BME280;43102;52.014;-0.680;2023-01-27T04:07:00;102166;;;4.36;83.66
57250;BME280;43102;52.014;-0.680;2023-01-27T04:08:00;102166;;;4.36;83.66
57250;BME280;43102;52.014;-0.680;2023-01-27T04:09:00;102166;;;4.36;83.66
57250;BME280;43102;52.014;-0.680;2023-01-27T04:10:00;102162;;;4.37;83.89
57250;BME280;43102;52.014;-0.680;2023-01-27T04:11:00;102162;;;4.37;83.89
57250;BME280;43102;52.014;-0.680;2023-01-27T04:12:01;102162;;;4.37;83.89
57250;BME280;43102;52.014;-0.680;2023-01-27T04:13:00;102162;;;4.37;83.89
57250;BME280;43102;52.014;-0.680;2023-01-27T04:14:00;102162;;;4.37;83.89
57250;BME280;43102;52.014;-0.680;2023-01-27T04:15:00;102166;;;4.45;83.75
57250;BME280;43102;52.014;-0.680;2023-01-27T04:16:00;102166;;;4.45;83.75
57250;BME280;43102;52.014;-0.680;2023-01-27T04:17:02;102166;;;4.45;83.75
57250;BME280;43102;52.014;-0.680;2023-01-27T04:18:00;102166;;;4.45;83.75
57250;BME280;43102;52.014;-0.680;2023-01-27T04:19:00;102166;;;4.45;83.75
57250;BME280;43102;52.014;-0.680;2023-01-27T04:20:00;102164;;;4.45;84.02
57250;BME280;43102;52.014;-0.680;2023-01-27T04:21:00;102164;;;4.45;84.02
57250;BME280;43102;52.014;-0.680;2023-01-27T04:22:00;102164;;;4.45;84.02
57250;BME280;43102;52.014;-0.680;2023-01-27T04:23:00;102164;;;4.45;84.02
57250;BME280;43102;52.014;-0.680;2023-01-27T04:24:00;102164;;;4.45;84.02
57250;BME280;43102;52.014;-0.680;2023-01-27T04:25:00;102160;;;4.49;83.94
57250;BME280;43102;52.014;-0.680;2023-01-27T04:26:00;102160;;;4.49;83.94
57250;BME280;43102;52.014;-0.680;2023-01-27T04:27:01;102160;;;4.49;83.94
57250;BME280;43102;52.014;-0.680;2023-01-27T04:28:00;102160;;;4.49;83.94
57250;BME280;43102;52.014;-0.680;2023-01-27T04:29:01;102160;;;4.49;83.94
57250;BME280;43102;52.014;-0.680;2023-01-27T04:30:00;102168;;;4.40;84.62
57250;BME280;43102;52.014;-0.680;2023-01-27T04:31:00;102168;;;4.40;84.62
57250;BME280;43102;52.014;-0.680;2023-01-27T04:32:00;102168;;;4.40;84.62
57250;BME280;43102;52.014;-0.680;2023-01-27T04:33:00;102168;;;4.40;84.62
57250;BME280;43102;52.014;-0.680;2023-01-27T04:34:00;102168;;;4.40;84.62
57250;BME280;43102;52.014;-0.680;2023-01-27T04:35:00;102167;;;4.53;84.20
57250;BME280;43102;52.014;-0.680;2023-01-27T04:36:00;102167;;;4.53;84.20
57250;BME280;43102;52.014;-0.680;2023-01-27T04:37:00;102167;;;4.53;84.20
57250;BME280;43102;52.014;-0.680;2023-01-27T04:38:00;102167;;;4.53;84.20
57250;BME280;43102;52.014;-0.680;2023-01-27T04:39:00;102167;;;4.53;84.20
57250;BME280;43102;52.014;-0.680;2023-01-27T04:40:00;102165;;;4.45;84.80
57250;BME280;43102;52.014;-0.680;2023-01-27T04:41:00;102165;;;4.45;84.80
57250;BME280;43102;52.014;-0.680;2023-01-27T04:42:00;102165;;;4.45;84.80
57250;BME280;43102;52.014;-0.680;2023-01-27T04:43:00;102165;;;4.45;84.80
57250;BME280;43102;52.014;-0.680;2023-01-27T04:44:00;102165;;;4.45;84.80
57250;BME280;43102;52.014;-0.680;2023-01-27T04:45:00;102172;;;4.53;84.82
57250;BME280;43102;52.014;-0.680;2023-01-27T04:46:00;102172;;;4.53;84.82
57250;BME280;43102;52.014;-0.680;2023-01-27T04:47:00;102172;;;4.53;84.82
57250;BME280;43102;52.014;-0.680;2023-01-27T04:48:00;102172;;;4.53;84.82
57250;BME280;43102;52.014;-0.680;2023-01-27T04:49:00;102172;;;4.53;84.82
57250;BME280;43102;52.014;-0.680;2023-01-27T04:50:00;102167;;;4.54;84.84
57250;BME280;43102;52.014;-0.680;2023-01-27T04:51:00;102167;;;4.54;84.84
57250;BME280;43102;52.014;-0.680;2023-01-27T04:52:00;102167;;;4.54;84.84
57250;BME280;43102;52.014;-0.680;2023-01-27T04:53:00;102167;;;4.54;84.84
57250;BME280;43102;52.014;-0.680;2023-01-27T04:54:00;102167;;;4.54;84.84
57250;BME280;43102;52.014;-0.680;2023-01-27T04:55:00;102171;;;4.57;85.11
57250;BME280;43102;52.014;-0.680;2023-01-27T04:56:03;102171;;;4.57;85.11
57250;BME280;43102;52.014;-0.680;2023-01-27T04:57:00;102171;;;4.57;85.11
57250;BME280;43102;52.014;-0.680;2023-01-27T04:58:00;102171;;;4.57;85.11
57250;BME280;43102;52.014;-0.680;2023-01-27T04:59:01;102171;;;4.57;85.11
57250;BME280;43102;52.014;-0.680;2023-01-27T05:00:00;102170;;;4.60;85.02
57250;BME280;43102;52.014;-0.680;2023-01-27T05:01:00;102170;;;4.60;85.02
57250;BME280;43102;52.014;-0.680;2023-01-27T05:02:00;102170;;;4.60;85.02
57250;BME280;43102;52.014;-0.680;2023-01-27T05:03:00;102170;;;4.60;85.02
57250;BME280;43102;52.014;-0.680;2023-01-27T05:04:00;102170;;;4.60;85.02
57250;BME280;43102;52.014;-0.680;2023-01-27T05:05:00;102167;;;4.59;85.22
57250;BME280;43102;52.014;-0.680;2023-01-27T05:06:00;102167;;;4.59;85.22
57250;BME280;43102;52.014;-0.680;2023-01-27T05:07:00;102167;;;4.59;85.22
57250;BME280;43102;52.014;-0.680;2023-01-27T05:08:02;102167;;;4.59;85.22
57250;BME280;43102;52.014;-0.680;2023-01-27T05:09:00;102167;;;4.59;85.22
57250;BME280;43102;52.014;-0.680;2023-01-27T05:10:00;102177;;;4.65;85.31
57250;BME280;43102;52.014;-0.680;2023-01-27T05:11:00;102177;;;4.65;85.31
57250;BME280;43102;52.014;-0.680;2023-01-27T05:12:00;102177;;;4.65;85.31
57250;BME280;43102;52.014;-0.680;2023-01-27T05:13:00;102177;;;4.65;85.31
57250;BME280;43102;52.014;-0.680;2023-01-27T05:14:00;102177;;;4.65;85.31
57250;BME280;43102;52.014;-0.680;2023-01-27T05:15:00;102180;;;4.68;85.39
57250;BME280;43102;52.014;-0.680;2023-01-27T05:16:08;102180;;;4.68;85.39
57250;BME280;43102;52.014;-0.680;2023-01-27T05:17:00;102180;;;4.68;85.39
57250;BME280;43102;52.014;-0.680;2023-01-27T05:18:00;102180;;;4.68;85.39
57250;BME280;43102;52.014;-0.680;2023-01-27T05:19:00;102180;;;4.68;85.39
57250;BME280;43102;52.014;-0.680;2023-01-27T05:20:00;102165;;;4.74;85.43
57250;BME280;43102;52.014;-0.680;2023-01-27T05:21:00;102165;;;4.74;85.43
57250;BME280;43102;52.014;-0.680;2023-01-27T05:22:00;102165;;;4.74;85.43
57250;BME280;43102;52.014;-0.680;2023-01-27T05:23:00;102165;;;4.74;85.43
57250;BME280;43102;52.014;-0.680;2023-01-27T05:24:00;102165;;;4.74;85.43
57250;BME280;43102;52.014;-0.680;2023-01-27T05:25:00;102170;;;4.72;85.56
57250;BME280;43102;52.014;-0.680;2023-01-27T05:26:04;102170;;;4.72;85.56
57250;BME280;43102;52.014;-0.680;2023-01-27T05:27:00;102170;;;4.72;85.56
57250;BME280;43102;52.014;-0.680;2023-01-27T05:28:00;102170;;;4.72;85.56
57250;BME280;43102;52.014;-0.680;2023-01-27T05:29:00;102170;;;4.72;85.56
57250;BME280;43102;52.014;-0.680;2023-01-27T05:30:00;102172;;;4.69;86.13
57250;BME280;43102;52.014;-0.680;2023-01-27T05:31:04;102172;;;4.69;86.13
57250;BME280;43102;52.014;-0.680;2023-01-27T05:32:00;102172;;;4.69;86.13
57250;BME280;43102;52.014;-0.680;2023-01-27T05:33:00;102172;;;4.69;86.13